sensor_id;sensor_type;location;lat;lon;timestamp;pressure;altitude;pressure_sealevel;temperature;humidity
4745;BME280;2386;42.138;24.746;2023-07-29T00:00:30;99309.81;;;23.93;41.17
4745;BME280;2386;42.138;24.746;2023-07-29T00:06:18;99316.34;;;23.63;41.87
4745;BME280;2386;42.138;24.746;2023-07-29T00:08:43;99307.84;;;23.50;42.38
4745;BME280;2386;42.138;24.746;2023-07-29T00:11:08;99301.88;;;23.66;42.35
4745;BME280;2386;42.138;24.746;2023-07-29T00:13:34;99287.19;;;23.65;42.67
4745;BME280;2386;42.138;24.746;2023-07-29T00:15:59;99296.50;;;23.69;42.45
4745;BME280;2386;42.138;24.746;2023-07-29T00:18:25;99298.59;;;23.72;42.96
4745;BME280;2386;42.138;24.746;2023-07-29T00:20:50;99290.78;;;23.66;42.93
4745;BME280;2386;42.138;24.746;2023-07-29T00:23:17;99293.66;;;23.52;43.60
4745;BME280;2386;42.138;24.746;2023-07-29T00:25:44;99297.88;;;23.41;43.85
4745;BME280;2386;42.138;24.746;2023-07-29T00:28:09;99308.84;;;23.54;43.31
4745;BME280;2386;42.138;24.746;2023-07-29T00:30:35;99307.53;;;23.52;43.67
4745;BME280;2386;42.138;24.746;2023-07-29T00:33:00;99313.38;;;23.42;43.84
4745;BME280;2386;42.138;24.746;2023-07-29T00:35:25;99317.94;;;23.46;43.76
4745;BME280;2386;42.138;24.746;2023-07-29T00:37:51;99318.09;;;23.50;43.95
4745;BME280;2386;42.138;24.746;2023-07-29T00:40:20;99314.97;;;23.34;43.91
4745;BME280;2386;42.138;24.746;2023-07-29T00:42:46;99316.91;;;23.25;45.40
4745;BME280;2386;42.138;24.746;2023-07-29T00:45:12;99312.66;;;23.19;45.49
4745;BME280;2386;42.138;24.746;2023-07-29T00:47:38;99314.09;;;23.08;46.01
4745;BME280;2386;42.138;24.746;2023-07-29T00:50:05;99309.94;;;22.79;47.04
4745;BME280;2386;42.138;24.746;2023-07-29T00:52:31;99312.94;;;22.91;46.93
4745;BME280;2386;42.138;24.746;2023-07-29T00:54:56;99315.47;;;22.79;47.88
4745;BME280;2386;42.138;24.746;2023-07-29T00:57:23;99309.88;;;23.02;47.17
4745;BME280;2386;42.138;24.746;2023-07-29T00:59:50;99308.22;;;22.92;47.01
4745;BME280;2386;42.138;24.746;2023-07-29T01:02:16;99298.94;;;22.97;47.57
4745;BME280;2386;42.138;24.746;2023-07-29T01:04:42;99299.41;;;22.90;47.48
4745;BME280;2386;42.138;24.746;2023-07-29T01:09:58;99299.72;;;22.88;46.63
4745;BME280;2386;42.138;24.746;2023-07-29T01:15:16;99304.78;;;22.86;47.31
4745;BME280;2386;42.138;24.746;2023-07-29T01:17:56;99301.50;;;22.84;46.97
4745;BME280;2386;42.138;24.746;2023-07-29T01:20:25;99290.16;;;22.94;46.88
4745;BME280;2386;42.138;24.746;2023-07-29T01:22:51;99294.41;;;23.01;46.82
4745;BME280;2386;42.138;24.746;2023-07-29T01:25:17;99295.03;;;22.98;46.59
4745;BME280;2386;42.138;24.746;2023-07-29T01:27:44;99301.84;;;22.91;47.02
4745;BME280;2386;42.138;24.746;2023-07-29T01:30:10;99295.47;;;22.82;47.59
4745;BME280;2386;42.138;24.746;2023-07-29T01:38:38;99311.81;;;22.70;47.44
4745;BME280;2386;42.138;24.746;2023-07-29T01:41:07;99318.50;;;22.69;47.87
4745;BME280;2386;42.138;24.746;2023-07-29T01:43:34;99301.66;;;22.79;47.35
4745;BME280;2386;42.138;24.746;2023-07-29T01:46:04;99300.72;;;22.61;48.36
4745;BME280;2386;42.138;24.746;2023-07-29T01:48:29;99312.00;;;22.74;48.52
4745;BME280;2386;42.138;24.746;2023-07-29T01:50:57;99307.28;;;22.74;49.24
4745;BME280;2386;42.138;24.746;2023-07-29T01:53:22;99309.63;;;22.81;48.00
4745;BME280;2386;42.138;24.746;2023-07-29T01:55:47;99311.13;;;22.87;47.88
4745;BME280;2386;42.138;24.746;2023-07-29T01:58:13;99317.53;;;22.74;49.07
4745;BME280;2386;42.138;24.746;2023-07-29T02:00:39;99312.97;;;22.69;48.40
4745;BME280;2386;42.138;24.746;2023-07-29T02:03:05;99324.88;;;22.78;48.45
4745;BME280;2386;42.138;24.746;2023-07-29T02:05:30;99314.91;;;22.69;48.68
4745;BME280;2386;42.138;24.746;2023-07-29T02:07:55;99317.84;;;22.72;48.36
4745;BME280;2386;42.138;24.746;2023-07-29T02:10:21;99329.50;;;22.60;49.47
4745;BME280;2386;42.138;24.746;2023-07-29T02:12:46;99325.25;;;22.54;50.18
4745;BME280;2386;42.138;24.746;2023-07-29T02:15:12;99335.84;;;22.61;49.63
4745;BME280;2386;42.138;24.746;2023-07-29T02:17:37;99340.19;;;22.53;50.19
4745;BME280;2386;42.138;24.746;2023-07-29T02:20:03;99336.38;;;22.41;50.19
4745;BME280;2386;42.138;24.746;2023-07-29T02:22:29;99343.41;;;22.47;51.03
4745;BME280;2386;42.138;24.746;2023-07-29T02:24:54;99336.00;;;22.34;50.41
4745;BME280;2386;42.138;24.746;2023-07-29T02:27:20;99330.66;;;22.37;51.46
4745;BME280;2386;42.138;24.746;2023-07-29T02:29:45;99334.75;;;22.40;50.61
4745;BME280;2386;42.138;24.746;2023-07-29T02:32:11;99324.81;;;22.39;50.49
4745;BME280;2386;42.138;24.746;2023-07-29T02:34:36;99321.63;;;22.45;50.99
4745;BME280;2386;42.138;24.746;2023-07-29T02:37:01;99324.13;;;22.24;51.92
4745;BME280;2386;42.138;24.746;2023-07-29T02:39:27;99343.97;;;22.26;52.22
4745;BME280;2386;42.138;24.746;2023-07-29T02:41:52;99340.69;;;22.24;52.06
4745;BME280;2386;42.138;24.746;2023-07-29T02:44:18;99337.00;;;22.38;51.23
4745;BME280;2386;42.138;24.746;2023-07-29T02:46:44;99328.84;;;22.33;51.30
4745;BME280;2386;42.138;24.746;2023-07-29T02:49:10;99329.94;;;22.23;51.72
4745;BME280;2386;42.138;24.746;2023-07-29T02:51:35;99336.88;;;21.98;53.02
4745;BME280;2386;42.138;24.746;2023-07-29T02:54:00;99335.09;;;22.16;52.23
4745;BME280;2386;42.138;24.746;2023-07-29T02:56:26;99326.75;;;22.07;52.19
4745;BME280;2386;42.138;24.746;2023-07-29T02:58:51;99332.69;;;22.01;53.27
4745;BME280;2386;42.138;24.746;2023-07-29T03:01:17;99337.38;;;22.00;52.83
4745;BME280;2386;42.138;24.746;2023-07-29T03:03:43;99343.47;;;21.88;54.29
4745;BME280;2386;42.138;24.746;2023-07-29T03:06:10;99330.53;;;21.75;54.39
4745;BME280;2386;42.138;24.746;2023-07-29T03:08:36;99350.16;;;21.74;54.69
4745;BME280;2386;42.138;24.746;2023-07-29T03:11:07;99337.88;;;21.80;54.56
4745;BME280;2386;42.138;24.746;2023-07-29T03:13:32;99341.78;;;22.01;54.01
4745;BME280;2386;42.138;24.746;2023-07-29T03:16:09;99342.31;;;22.03;53.62
4745;BME280;2386;42.138;24.746;2023-07-29T03:18:35;99336.00;;;21.89;53.57
4745;BME280;2386;42.138;24.746;2023-07-29T03:21:01;99347.63;;;22.00;52.71
4745;BME280;2386;42.138;24.746;2023-07-29T03:26:48;99348.91;;;21.80;53.42
4745;BME280;2386;42.138;24.746;2023-07-29T03:29:14;99343.59;;;21.83;52.95
4745;BME280;2386;42.138;24.746;2023-07-29T03:31:39;99353.00;;;21.82;53.84
4745;BME280;2386;42.138;24.746;2023-07-29T03:34:04;99350.22;;;21.82;53.96
4745;BME280;2386;42.138;24.746;2023-07-29T03:36:30;99368.75;;;21.82;54.28
4745;BME280;2386;42.138;24.746;2023-07-29T03:38:55;99370.91;;;21.71;54.74
4745;BME280;2386;42.138;24.746;2023-07-29T03:41:20;99371.63;;;21.77;55.40
4745;BME280;2386;42.138;24.746;2023-07-29T03:43:46;99368.56;;;21.78;54.86
4745;BME280;2386;42.138;24.746;2023-07-29T03:46:11;99374.06;;;21.78;54.96
4745;BME280;2386;42.138;24.746;2023-07-29T03:48:37;99376.03;;;21.78;55.20
4745;BME280;2386;42.138;24.746;2023-07-29T03:51:02;99375.59;;;21.84;54.61
4745;BME280;2386;42.138;24.746;2023-07-29T03:53:27;99368.34;;;21.75;54.81
4745;BME280;2386;42.138;24.746;2023-07-29T03:55:53;99380.03;;;21.72;55.27
4745;BME280;2386;42.138;24.746;2023-07-29T03:58:18;99381.88;;;21.62;55.61
4745;BME280;2386;42.138;24.746;2023-07-29T04:00:44;99388.25;;;21.49;56.85
4745;BME280;2386;42.138;24.746;2023-07-29T04:03:09;99391.94;;;21.45;56.39
4745;BME280;2386;42.138;24.746;2023-07-29T04:05:34;99386.22;;;21.41;58.11
4745;BME280;2386;42.138;24.746;2023-07-29T04:08:00;99385.31;;;21.32;57.82
4745;BME280;2386;42.138;24.746;2023-07-29T04:10:25;99389.41;;;21.35;58.69
4745;BME280;2386;42.138;24.746;2023-07-29T04:12:51;99388.47;;;21.39;58.41
4745;BME280;2386;42.138;24.746;2023-07-29T04:15:16;99376.63;;;21.39;59.00
4745;BME280;2386;42.138;24.746;2023-07-29T04:17:41;99391.53;;;21.51;59.10
4745;BME280;2386;42.138;24.746;2023-07-29T04:20:07;99396.66;;;21.44;59.38
4745;BME280;2386;42.138;24.746;2023-07-29T04:22:33;99393.16;;;21.52;59.24
4745;BME280;2386;42.138;24.746;2023-07-29T04:24:58;99390.47;;;21.61;58.20
4745;BME280;2386;42.138;24.746;2023-07-29T04:27:23;99399.25;;;21.77;58.10
4745;BME280;2386;42.138;24.746;2023-07-29T04:29:49;99405.38;;;21.74;58.19
4745;BME280;2386;42.138;24.746;2023-07-29T04:32:14;99397.59;;;21.76;57.98
4745;BME280;2386;42.138;24.746;2023-07-29T04:34:40;99400.47;;;21.71;58.97
4745;BME280;2386;42.138;24.746;2023-07-29T04:37:05;99397.59;;;21.76;57.77
4745;BME280;2386;42.138;24.746;2023-07-29T04:39:30;99402.41;;;21.84;57.80
4745;BME280;2386;42.138;24.746;2023-07-29T04:41:56;99407.84;;;21.75;57.71
4745;BME280;2386;42.138;24.746;2023-07-29T04:44:22;99412.94;;;21.82;59.08
4745;BME280;2386;42.138;24.746;2023-07-29T04:46:47;99409.75;;;21.88;58.83
4745;BME280;2386;42.138;24.746;2023-07-29T04:52:34;99396.94;;;21.92;58.01
4745;BME280;2386;42.138;24.746;2023-07-29T04:55:00;99398.81;;;21.83;59.24
4745;BME280;2386;42.138;24.746;2023-07-29T04:57:25;99396.75;;;21.89;59.26
4745;BME280;2386;42.138;24.746;2023-07-29T04:59:51;99412.38;;;22.07;58.05
4745;BME280;2386;42.138;24.746;2023-07-29T05:02:16;99400.22;;;22.08;57.82
4745;BME280;2386;42.138;24.746;2023-07-29T05:04:41;99401.53;;;21.97;59.14
4745;BME280;2386;42.138;24.746;2023-07-29T05:07:07;99403.28;;;22.07;57.85
4745;BME280;2386;42.138;24.746;2023-07-29T05:09:32;99406.69;;;22.04;58.68
4745;BME280;2386;42.138;24.746;2023-07-29T05:11:57;99420.56;;;22.12;56.62
4745;BME280;2386;42.138;24.746;2023-07-29T05:14:23;99408.16;;;22.23;57.05
4745;BME280;2386;42.138;24.746;2023-07-29T05:16:48;99422.69;;;22.15;57.66
4745;BME280;2386;42.138;24.746;2023-07-29T05:19:14;99418.81;;;22.16;57.30
4745;BME280;2386;42.138;24.746;2023-07-29T05:21:39;99408.50;;;22.30;56.88
4745;BME280;2386;42.138;24.746;2023-07-29T05:24:05;99417.97;;;22.38;55.85
4745;BME280;2386;42.138;24.746;2023-07-29T05:26:31;99410.19;;;22.40;55.37
4745;BME280;2386;42.138;24.746;2023-07-29T05:28:56;99407.94;;;22.42;55.20
4745;BME280;2386;42.138;24.746;2023-07-29T05:31:22;99415.84;;;22.57;55.54
4745;BME280;2386;42.138;24.746;2023-07-29T05:34:15;99421.44;;;22.66;54.98
4745;BME280;2386;42.138;24.746;2023-07-29T05:36:40;99414.66;;;22.72;53.20
4745;BME280;2386;42.138;24.746;2023-07-29T05:39:06;99422.53;;;22.79;53.84
4745;BME280;2386;42.138;24.746;2023-07-29T05:41:32;99426.09;;;22.79;53.39
4745;BME280;2386;42.138;24.746;2023-07-29T05:43:57;99432.88;;;22.73;53.51
4745;BME280;2386;42.138;24.746;2023-07-29T05:46:23;99431.50;;;22.84;52.63
4745;BME280;2386;42.138;24.746;2023-07-29T05:48:48;99436.28;;;22.92;52.32
4745;BME280;2386;42.138;24.746;2023-07-29T05:51:13;99421.19;;;22.99;51.64
4745;BME280;2386;42.138;24.746;2023-07-29T05:53:39;99436.84;;;23.12;51.48
4745;BME280;2386;42.138;24.746;2023-07-29T05:56:04;99427.84;;;22.98;52.45
4745;BME280;2386;42.138;24.746;2023-07-29T05:58:30;99429.47;;;22.99;52.78
4745;BME280;2386;42.138;24.746;2023-07-29T06:00:57;99424.00;;;23.16;52.00
4745;BME280;2386;42.138;24.746;2023-07-29T06:06:38;99424.72;;;23.30;50.38
4745;BME280;2386;42.138;24.746;2023-07-29T06:09:04;99417.38;;;23.25;50.48
4745;BME280;2386;42.138;24.746;2023-07-29T06:11:29;99421.97;;;23.39;50.77
4745;BME280;2386;42.138;24.746;2023-07-29T06:13:55;99424.78;;;23.47;49.94
4745;BME280;2386;42.138;24.746;2023-07-29T06:16:51;99422.06;;;23.56;49.74
4745;BME280;2386;42.138;24.746;2023-07-29T06:19:18;99425.59;;;23.48;49.60
4745;BME280;2386;42.138;24.746;2023-07-29T06:21:43;99427.78;;;23.59;49.87
4745;BME280;2386;42.138;24.746;2023-07-29T06:24:46;99430.41;;;23.65;50.08
4745;BME280;2386;42.138;24.746;2023-07-29T06:27:11;99424.72;;;23.70;50.13
4745;BME280;2386;42.138;24.746;2023-07-29T06:29:37;99419.34;;;23.82;49.48
4745;BME280;2386;42.138;24.746;2023-07-29T06:32:02;99432.06;;;24.00;49.08
4745;BME280;2386;42.138;24.746;2023-07-29T06:34:28;99419.19;;;24.04;48.55
4745;BME280;2386;42.138;24.746;2023-07-29T06:36:53;99426.22;;;24.10;48.17
4745;BME280;2386;42.138;24.746;2023-07-29T06:39:19;99421.66;;;24.14;48.16
4745;BME280;2386;42.138;24.746;2023-07-29T06:41:44;99409.91;;;24.17;47.81
4745;BME280;2386;42.138;24.746;2023-07-29T06:44:09;99416.31;;;24.35;47.59
4745;BME280;2386;42.138;24.746;2023-07-29T06:46:35;99410.91;;;24.39;47.33
4745;BME280;2386;42.138;24.746;2023-07-29T06:49:00;99409.09;;;24.51;46.25
4745;BME280;2386;42.138;24.746;2023-07-29T06:51:25;99412.66;;;24.61;46.74
4745;BME280;2386;42.138;24.746;2023-07-29T06:53:51;99416.25;;;24.70;46.59
4745;BME280;2386;42.138;24.746;2023-07-29T06:56:17;99408.88;;;24.82;45.97
4745;BME280;2386;42.138;24.746;2023-07-29T07:01:50;99410.34;;;24.97;45.32
4745;BME280;2386;42.138;24.746;2023-07-29T07:04:15;99420.94;;;25.04;44.63
4745;BME280;2386;42.138;24.746;2023-07-29T07:06:40;99419.09;;;25.16;44.61
4745;BME280;2386;42.138;24.746;2023-07-29T07:09:07;99404.69;;;25.23;44.40
4745;BME280;2386;42.138;24.746;2023-07-29T07:11:32;99422.53;;;25.43;44.44
4745;BME280;2386;42.138;24.746;2023-07-29T07:13:57;99405.06;;;25.42;43.95
4745;BME280;2386;42.138;24.746;2023-07-29T07:16:23;99411.19;;;25.57;43.71
4745;BME280;2386;42.138;24.746;2023-07-29T07:18:48;99403.81;;;25.69;43.43
4745;BME280;2386;42.138;24.746;2023-07-29T07:21:14;99397.78;;;25.67;43.41
4745;BME280;2386;42.138;24.746;2023-07-29T07:23:39;99382.38;;;25.70;43.68
4745;BME280;2386;42.138;24.746;2023-07-29T07:26:05;99399.69;;;25.75;43.47
4745;BME280;2386;42.138;24.746;2023-07-29T07:28:30;99395.22;;;25.83;42.99
4745;BME280;2386;42.138;24.746;2023-07-29T07:30:55;99383.69;;;25.93;43.00
4745;BME280;2386;42.138;24.746;2023-07-29T07:33:22;99391.50;;;26.00;42.41
4745;BME280;2386;42.138;24.746;2023-07-29T07:35:47;99381.63;;;26.02;42.19
4745;BME280;2386;42.138;24.746;2023-07-29T07:38:12;99391.88;;;26.10;42.93
4745;BME280;2386;42.138;24.746;2023-07-29T07:40:38;99374.50;;;26.13;42.54
4745;BME280;2386;42.138;24.746;2023-07-29T07:43:03;99373.63;;;26.22;42.09
4745;BME280;2386;42.138;24.746;2023-07-29T07:45:29;99373.41;;;26.27;41.89
4745;BME280;2386;42.138;24.746;2023-07-29T07:47:54;99376.97;;;26.36;42.22
4745;BME280;2386;42.138;24.746;2023-07-29T07:50:20;99370.16;;;26.45;42.52
4745;BME280;2386;42.138;24.746;2023-07-29T07:52:45;99374.63;;;26.59;42.02
4745;BME280;2386;42.138;24.746;2023-07-29T07:55:11;99364.78;;;26.61;42.04
4745;BME280;2386;42.138;24.746;2023-07-29T07:57:36;99372.44;;;26.76;41.98
4745;BME280;2386;42.138;24.746;2023-07-29T08:00:02;99365.84;;;26.81;42.06
4745;BME280;2386;42.138;24.746;2023-07-29T08:02:29;99353.78;;;26.89;41.91
4745;BME280;2386;42.138;24.746;2023-07-29T08:04:55;99349.97;;;26.94;41.59
4745;BME280;2386;42.138;24.746;2023-07-29T08:07:20;99347.22;;;27.06;41.71
4745;BME280;2386;42.138;24.746;2023-07-29T08:09:45;99350.03;;;27.18;41.99
4745;BME280;2386;42.138;24.746;2023-07-29T08:12:11;99336.09;;;27.18;41.35
4745;BME280;2386;42.138;24.746;2023-07-29T08:14:36;99342.72;;;27.26;41.34
4745;BME280;2386;42.138;24.746;2023-07-29T08:17:02;99348.03;;;27.31;41.23
4745;BME280;2386;42.138;24.746;2023-07-29T08:19:28;99339.09;;;27.37;40.94
4745;BME280;2386;42.138;24.746;2023-07-29T08:21:53;99337.72;;;27.43;40.79
4745;BME280;2386;42.138;24.746;2023-07-29T08:24:18;99336.03;;;27.55;41.12
4745;BME280;2386;42.138;24.746;2023-07-29T08:26:44;99337.66;;;27.56;40.70
4745;BME280;2386;42.138;24.746;2023-07-29T08:29:09;99332.09;;;27.68;40.68
4745;BME280;2386;42.138;24.746;2023-07-29T08:31:34;99339.31;;;27.69;40.80
4745;BME280;2386;42.138;24.746;2023-07-29T08:34:00;99318.38;;;27.75;40.86
4745;BME280;2386;42.138;24.746;2023-07-29T08:36:26;99331.38;;;27.83;40.16
4745;BME280;2386;42.138;24.746;2023-07-29T08:38:51;99324.13;;;27.94;40.15
4745;BME280;2386;42.138;24.746;2023-07-29T08:41:25;99321.81;;;27.96;39.00
4745;BME280;2386;42.138;24.746;2023-07-29T08:44:10;99313.41;;;28.08;39.53
4745;BME280;2386;42.138;24.746;2023-07-29T08:46:38;99312.78;;;28.15;39.14
4745;BME280;2386;42.138;24.746;2023-07-29T08:49:03;99309.03;;;28.23;39.33
4745;BME280;2386;42.138;24.746;2023-07-29T08:51:31;99305.28;;;28.31;39.50
4745;BME280;2386;42.138;24.746;2023-07-29T08:53:58;99308.63;;;28.37;38.90
4745;BME280;2386;42.138;24.746;2023-07-29T08:56:24;99304.84;;;28.45;39.08
4745;BME280;2386;42.138;24.746;2023-07-29T09:02:11;99304.16;;;28.64;38.04
4745;BME280;2386;42.138;24.746;2023-07-29T09:04:37;99309.94;;;28.71;37.08
4745;BME280;2386;42.138;24.746;2023-07-29T09:07:02;99305.78;;;28.81;37.08
4745;BME280;2386;42.138;24.746;2023-07-29T09:12:39;99309.34;;;28.93;36.46
4745;BME280;2386;42.138;24.746;2023-07-29T09:15:05;99303.09;;;29.00;36.78
4745;BME280;2386;42.138;24.746;2023-07-29T09:17:33;99297.59;;;29.03;36.95
4745;BME280;2386;42.138;24.746;2023-07-29T09:19:58;99290.66;;;29.13;36.04
4745;BME280;2386;42.138;24.746;2023-07-29T09:22:23;99288.47;;;29.22;35.27
4745;BME280;2386;42.138;24.746;2023-07-29T09:24:51;99284.59;;;29.27;35.42
4745;BME280;2386;42.138;24.746;2023-07-29T09:27:27;99277.53;;;29.33;35.94
4745;BME280;2386;42.138;24.746;2023-07-29T09:29:53;99272.47;;;29.38;35.95
4745;BME280;2386;42.138;24.746;2023-07-29T09:32:20;99275.56;;;29.49;35.15
4745;BME280;2386;42.138;24.746;2023-07-29T09:34:46;99274.16;;;29.59;34.93
4745;BME280;2386;42.138;24.746;2023-07-29T09:37:21;99271.97;;;29.68;34.95
4745;BME280;2386;42.138;24.746;2023-07-29T09:39:49;99256.00;;;29.68;34.72
4745;BME280;2386;42.138;24.746;2023-07-29T09:42:22;99258.56;;;29.77;33.78
4745;BME280;2386;42.138;24.746;2023-07-29T09:44:51;99263.94;;;29.86;34.33
4745;BME280;2386;42.138;24.746;2023-07-29T09:47:23;99251.56;;;29.87;32.19
4745;BME280;2386;42.138;24.746;2023-07-29T09:49:56;99250.91;;;29.93;32.38
4745;BME280;2386;42.138;24.746;2023-07-29T09:52:23;99256.19;;;29.98;31.98
4745;BME280;2386;42.138;24.746;2023-07-29T09:54:48;99252.38;;;30.06;32.32
4745;BME280;2386;42.138;24.746;2023-07-29T09:57:15;99243.38;;;29.97;30.42
4745;BME280;2386;42.138;24.746;2023-07-29T09:59:41;99248.03;;;30.09;29.91
4745;BME280;2386;42.138;24.746;2023-07-29T10:02:16;99250.16;;;30.16;30.84
4745;BME280;2386;42.138;24.746;2023-07-29T10:04:42;99249.19;;;30.27;30.31
4745;BME280;2386;42.138;24.746;2023-07-29T10:07:09;99239.19;;;30.26;30.67
4745;BME280;2386;42.138;24.746;2023-07-29T10:09:36;99236.44;;;30.30;30.46
4745;BME280;2386;42.138;24.746;2023-07-29T10:12:01;99244.59;;;30.38;30.62
4745;BME280;2386;42.138;24.746;2023-07-29T10:17:50;99239.16;;;30.49;31.04
4745;BME280;2386;42.138;24.746;2023-07-29T10:20:16;99238.47;;;30.56;30.65
4745;BME280;2386;42.138;24.746;2023-07-29T10:22:43;99237.88;;;30.66;31.49
4745;BME280;2386;42.138;24.746;2023-07-29T10:25:19;99224.38;;;30.71;31.32
4745;BME280;2386;42.138;24.746;2023-07-29T10:27:55;99238.13;;;30.80;31.45
4745;BME280;2386;42.138;24.746;2023-07-29T10:30:21;99235.81;;;30.86;31.36
4745;BME280;2386;42.138;24.746;2023-07-29T10:32:48;99226.72;;;30.92;30.91
4745;BME280;2386;42.138;24.746;2023-07-29T10:35:15;99227.97;;;30.95;30.95
4745;BME280;2386;42.138;24.746;2023-07-29T10:37:42;99220.09;;;31.04;30.86
4745;BME280;2386;42.138;24.746;2023-07-29T10:40:09;99221.81;;;31.12;30.81
4745;BME280;2386;42.138;24.746;2023-07-29T10:42:36;99209.16;;;31.22;30.79
4745;BME280;2386;42.138;24.746;2023-07-29T10:45:20;99203.59;;;31.25;30.90
4745;BME280;2386;42.138;24.746;2023-07-29T10:47:47;99200.56;;;31.37;32.85
4745;BME280;2386;42.138;24.746;2023-07-29T10:50:21;99208.69;;;31.46;34.71
4745;BME280;2386;42.138;24.746;2023-07-29T10:52:51;99204.75;;;31.51;31.40
4745;BME280;2386;42.138;24.746;2023-07-29T10:55:26;99203.97;;;31.54;31.25
4745;BME280;2386;42.138;24.746;2023-07-29T10:57:52;99191.56;;;31.55;30.75
4745;BME280;2386;42.138;24.746;2023-07-29T11:00:19;99195.22;;;31.59;30.39
4745;BME280;2386;42.138;24.746;2023-07-29T11:02:59;99191.28;;;31.63;29.30
4745;BME280;2386;42.138;24.746;2023-07-29T11:05:50;99188.97;;;31.69;29.21
4745;BME280;2386;42.138;24.746;2023-07-29T11:08:34;99179.38;;;31.70;29.49
4745;BME280;2386;42.138;24.746;2023-07-29T11:13:29;99177.91;;;31.83;28.23
4745;BME280;2386;42.138;24.746;2023-07-29T11:15:58;99182.38;;;31.88;27.90
4745;BME280;2386;42.138;24.746;2023-07-29T11:18:29;99188.50;;;32.00;28.01
4745;BME280;2386;42.138;24.746;2023-07-29T11:20:56;99178.13;;;32.05;29.42
4745;BME280;2386;42.138;24.746;2023-07-29T11:23:28;99159.59;;;31.96;28.13
4745;BME280;2386;42.138;24.746;2023-07-29T11:33:45;99157.50;;;32.27;30.40
4745;BME280;2386;42.138;24.746;2023-07-29T11:36:18;99162.38;;;32.33;28.86
4745;BME280;2386;42.138;24.746;2023-07-29T11:38:44;99155.19;;;32.36;28.91
4745;BME280;2386;42.138;24.746;2023-07-29T11:41:10;99155.31;;;32.50;30.09
4745;BME280;2386;42.138;24.746;2023-07-29T11:43:35;99149.69;;;32.50;30.25
4745;BME280;2386;42.138;24.746;2023-07-29T11:51:12;99146.41;;;32.96;30.38
4745;BME280;2386;42.138;24.746;2023-07-29T11:53:38;99142.03;;;33.02;29.09
4745;BME280;2386;42.138;24.746;2023-07-29T11:56:04;99135.28;;;33.17;28.37
4745;BME280;2386;42.138;24.746;2023-07-29T11:58:30;99126.13;;;33.31;29.88
4745;BME280;2386;42.138;24.746;2023-07-29T12:00:56;99128.16;;;33.45;28.61
4745;BME280;2386;42.138;24.746;2023-07-29T12:03:22;99126.25;;;33.67;32.18
4745;BME280;2386;42.138;24.746;2023-07-29T12:05:48;99127.13;;;34.24;31.53
4745;BME280;2386;42.138;24.746;2023-07-29T12:08:14;99128.94;;;35.55;28.74
4745;BME280;2386;42.138;24.746;2023-07-29T12:10:39;99128.38;;;38.10;26.21
4745;BME280;2386;42.138;24.746;2023-07-29T12:13:07;99130.31;;;40.55;21.77
4745;BME280;2386;42.138;24.746;2023-07-29T12:15:33;99131.25;;;42.78;21.61
4745;BME280;2386;42.138;24.746;2023-07-29T12:17:59;99146.16;;;44.53;18.10
4745;BME280;2386;42.138;24.746;2023-07-29T12:20:26;99140.19;;;46.03;18.11
4745;BME280;2386;42.138;24.746;2023-07-29T12:23:00;99143.47;;;47.30;16.04
4745;BME280;2386;42.138;24.746;2023-07-29T12:25:28;99135.81;;;48.16;15.81
4745;BME280;2386;42.138;24.746;2023-07-29T12:27:54;99131.38;;;48.90;14.94
4745;BME280;2386;42.138;24.746;2023-07-29T12:30:23;99132.16;;;49.37;15.59
4745;BME280;2386;42.138;24.746;2023-07-29T12:32:50;99137.72;;;49.98;13.93
4745;BME280;2386;42.138;24.746;2023-07-29T12:35:15;99131.50;;;50.53;14.64
4745;BME280;2386;42.138;24.746;2023-07-29T12:37:41;99132.69;;;50.78;14.56
4745;BME280;2386;42.138;24.746;2023-07-29T12:40:29;99134.41;;;51.07;12.82
4745;BME280;2386;42.138;24.746;2023-07-29T12:42:56;99129.00;;;51.65;12.49
4745;BME280;2386;42.138;24.746;2023-07-29T12:45:22;99127.94;;;51.90;11.74
4745;BME280;2386;42.138;24.746;2023-07-29T12:47:51;99127.72;;;52.00;12.51
4745;BME280;2386;42.138;24.746;2023-07-29T12:50:16;99130.59;;;51.88;11.36
4745;BME280;2386;42.138;24.746;2023-07-29T12:52:42;99130.78;;;51.35;10.99
4745;BME280;2386;42.138;24.746;2023-07-29T12:55:08;99137.63;;;51.32;11.41
4745;BME280;2386;42.138;24.746;2023-07-29T12:57:34;99123.09;;;50.98;11.28
4745;BME280;2386;42.138;24.746;2023-07-29T13:00:00;99112.66;;;49.84;11.76
4745;BME280;2386;42.138;24.746;2023-07-29T13:02:26;99102.03;;;47.81;13.02
4745;BME280;2386;42.138;24.746;2023-07-29T13:04:51;99108.72;;;45.76;14.24
4745;BME280;2386;42.138;24.746;2023-07-29T13:07:17;99102.91;;;44.70;15.41
4745;BME280;2386;42.138;24.746;2023-07-29T13:09:42;99108.56;;;44.24;15.83
4745;BME280;2386;42.138;24.746;2023-07-29T13:12:08;99111.59;;;44.30;15.82
4745;BME280;2386;42.138;24.746;2023-07-29T13:14:33;99114.50;;;44.66;15.64
4745;BME280;2386;42.138;24.746;2023-07-29T13:17:03;99116.47;;;45.24;15.83
4745;BME280;2386;42.138;24.746;2023-07-29T13:19:29;99110.22;;;46.04;15.85
4745;BME280;2386;42.138;24.746;2023-07-29T13:21:55;99110.50;;;46.63;14.40
4745;BME280;2386;42.138;24.746;2023-07-29T13:24:20;99112.69;;;46.68;14.93
4745;BME280;2386;42.138;24.746;2023-07-29T13:26:49;99116.81;;;46.20;13.97
4745;BME280;2386;42.138;24.746;2023-07-29T13:29:14;99089.63;;;46.06;14.32
4745;BME280;2386;42.138;24.746;2023-07-29T13:31:39;99111.84;;;45.96;14.04
4745;BME280;2386;42.138;24.746;2023-07-29T13:34:05;99093.34;;;46.93;15.45
4745;BME280;2386;42.138;24.746;2023-07-29T13:36:30;99102.94;;;47.87;13.63
4745;BME280;2386;42.138;24.746;2023-07-29T13:38:56;99084.63;;;48.60;13.52
4745;BME280;2386;42.138;24.746;2023-07-29T13:41:21;99090.88;;;49.83;12.09
4745;BME280;2386;42.138;24.746;2023-07-29T13:43:46;99088.53;;;50.67;12.24
4745;BME280;2386;42.138;24.746;2023-07-29T13:46:12;99094.03;;;51.69;11.21
4745;BME280;2386;42.138;24.746;2023-07-29T13:48:37;99088.50;;;51.76;11.00
4745;BME280;2386;42.138;24.746;2023-07-29T13:51:03;99087.88;;;52.28;11.65
4745;BME280;2386;42.138;24.746;2023-07-29T13:53:28;99088.59;;;52.57;10.63
4745;BME280;2386;42.138;24.746;2023-07-29T13:55:54;99099.25;;;51.48;10.89
4745;BME280;2386;42.138;24.746;2023-07-29T13:58:19;99100.41;;;50.85;11.55
4745;BME280;2386;42.138;24.746;2023-07-29T14:00:44;99100.84;;;49.82;11.82